Baxterville, Mississippi
Current Conditions -  °F | °C
As of 1:53 PM on Monday 22 Dec 2014 (Local Time) from KHBG Reporting Station
Overcast Overcast  
Wind Chill: 67°   Ceiling: 900
Heat Index: 67°   Visibility: 10mi
Dew Point: 63°   Wind: 10mph
Humidity: 87%   Direction: 150°SSE
Pressure: 29.74"   Gusts: NA
Location:  31.0601°N, 89.4815°W
Report Text: KHBG 221953Z AUTO 15009KT 10SM OVC009 19/17 A2974 RMK AO2 RAB16E28 SLP068 P0000 T01940172
Loading
Personal Weather Stations






























Interactive Weather Map New forecast layout! Learn more

10-Day Weather Forecast

Advertisements
Track Severe Weather on mobile